<?xml version="1.0" encoding="UTF-8" standalone="no" ?>
<gpx xmlns="http://www.topografix.com/GPX/1/1" xmlns:xsi="http://www.w3.org/2001/XMLSchema-instance" xsi:schemaLocation="http://www.topografix.com/GPX/1/1 http://www.topografix.com/GPX/1/1/gpx.xsd" version="1.1" creator="VisuGPX - https://www.visugpx.com">
  <metadata>
    <name>Balade sur le mont Saint Martin - Cap d'agde</name>
    <desc><![CDATA[Petit tour en VTT de la pinède au mont Saint Martin pour profiter du panorama sur le Cap d'Agde, Marseillan, l'étang de Thau.]]></desc>
  </metadata>
  <trk>
    <name><![CDATA[Balade sur le mont Saint Martin - Cap d'agde_1]]></name>
    <trkseg>
      <trkpt lat="43.29255" lon="3.51361">
        <ele>65</ele>
        <time>2010-07-21T12:42:50Z</time>
      </trkpt>
      <trkpt lat="43.29254" lon="3.51369">
        <ele>58</ele>
        <time>2010-07-21T12:43:52Z</time>
      </trkpt>
      <trkpt lat="43.29257" lon="3.51363">
        <ele>62</ele>
        <time>2010-07-21T12:44:53Z</time>
      </trkpt>
      <trkpt lat="43.29217" lon="3.51326">
        <ele>75</ele>
        <time>2010-07-21T12:45:45Z</time>
      </trkpt>
      <trkpt lat="43.29186" lon="3.51281">
        <ele>82</ele>
        <time>2010-07-21T12:46:08Z</time>
      </trkpt>
      <trkpt lat="43.29183" lon="3.51219">
        <ele>84</ele>
        <time>2010-07-21T12:46:16Z</time>
      </trkpt>
      <trkpt lat="43.29215" lon="3.51035">
        <ele>92</ele>
        <time>2010-07-21T12:46:42Z</time>
      </trkpt>
      <trkpt lat="43.29254" lon="3.50947">
        <ele>97</ele>
        <time>2010-07-21T12:46:55Z</time>
      </trkpt>
      <trkpt lat="43.29263" lon="3.50936">
        <ele>97</ele>
        <time>2010-07-21T12:46:56Z</time>
      </trkpt>
      <trkpt lat="43.29314" lon="3.50902">
        <ele>97</ele>
        <time>2010-07-21T12:47:07Z</time>
      </trkpt>
      <trkpt lat="43.29359" lon="3.50878">
        <ele>99</ele>
        <time>2010-07-21T12:47:24Z</time>
      </trkpt>
      <trkpt lat="43.29398" lon="3.50842">
        <ele>103</ele>
        <time>2010-07-21T12:47:36Z</time>
      </trkpt>
      <trkpt lat="43.29505" lon="3.50754">
        <ele>103</ele>
        <time>2010-07-21T12:48:04Z</time>
      </trkpt>
      <trkpt lat="43.29512" lon="3.50756">
        <ele>104</ele>
        <time>2010-07-21T12:48:07Z</time>
      </trkpt>
      <trkpt lat="43.29555" lon="3.50743">
        <ele>104</ele>
        <time>2010-07-21T12:50:52Z</time>
      </trkpt>
      <trkpt lat="43.29621" lon="3.50717">
        <ele>102</ele>
        <time>2010-07-21T12:51:52Z</time>
      </trkpt>
      <trkpt lat="43.29672" lon="3.50724">
        <ele>102</ele>
        <time>2010-07-21T12:51:56Z</time>
      </trkpt>
      <trkpt lat="43.29733" lon="3.50741">
        <ele>102</ele>
        <time>2010-07-21T12:52:02Z</time>
      </trkpt>
      <trkpt lat="43.29787" lon="3.50758">
        <ele>102</ele>
        <time>2010-07-21T12:52:08Z</time>
      </trkpt>
      <trkpt lat="43.2983" lon="3.50756">
        <ele>102</ele>
        <time>2010-07-21T12:53:18Z</time>
      </trkpt>
      <trkpt lat="43.29961" lon="3.50775">
        <ele>87</ele>
        <time>2010-07-21T12:53:46Z</time>
      </trkpt>
      <trkpt lat="43.29984" lon="3.50777">
        <ele>85</ele>
        <time>2010-07-21T12:54:21Z</time>
      </trkpt>
      <trkpt lat="43.29998" lon="3.50779">
        <ele>85</ele>
        <time>2010-07-21T12:54:23Z</time>
      </trkpt>
      <trkpt lat="43.3036" lon="3.50801">
        <ele>83</ele>
        <time>2010-07-21T12:55:24Z</time>
      </trkpt>
      <trkpt lat="43.30435" lon="3.50818">
        <ele>85</ele>
        <time>2010-07-21T12:55:37Z</time>
      </trkpt>
      <trkpt lat="43.3044" lon="3.50814">
        <ele>84</ele>
        <time>2010-07-21T12:55:39Z</time>
      </trkpt>
      <trkpt lat="43.30441" lon="3.50809">
        <ele>84</ele>
        <time>2010-07-21T12:55:40Z</time>
      </trkpt>
      <trkpt lat="43.30447" lon="3.50794">
        <ele>84</ele>
        <time>2010-07-21T12:55:43Z</time>
      </trkpt>
      <trkpt lat="43.30453" lon="3.5076">
        <ele>83</ele>
        <time>2010-07-21T12:55:52Z</time>
      </trkpt>
      <trkpt lat="43.30438" lon="3.50739">
        <ele>84</ele>
        <time>2010-07-21T12:55:58Z</time>
      </trkpt>
      <trkpt lat="43.30435" lon="3.50736">
        <ele>83</ele>
        <time>2010-07-21T12:55:59Z</time>
      </trkpt>
      <trkpt lat="43.30395" lon="3.50706">
        <ele>77</ele>
        <time>2010-07-21T12:56:15Z</time>
      </trkpt>
      <trkpt lat="43.30373" lon="3.50681">
        <ele>74</ele>
        <time>2010-07-21T12:56:23Z</time>
      </trkpt>
      <trkpt lat="43.30359" lon="3.50661">
        <ele>73</ele>
        <time>2010-07-21T12:56:31Z</time>
      </trkpt>
      <trkpt lat="43.30349" lon="3.50651">
        <ele>73</ele>
        <time>2010-07-21T12:56:35Z</time>
      </trkpt>
      <trkpt lat="43.30279" lon="3.50608">
        <ele>74</ele>
        <time>2010-07-21T12:57:00Z</time>
      </trkpt>
      <trkpt lat="43.30274" lon="3.5058">
        <ele>77</ele>
        <time>2010-07-21T12:57:08Z</time>
      </trkpt>
      <trkpt lat="43.30227" lon="3.50595">
        <ele>80</ele>
        <time>2010-07-21T12:57:38Z</time>
      </trkpt>
      <trkpt lat="43.30185" lon="3.50623">
        <ele>81</ele>
        <time>2010-07-21T12:57:47Z</time>
      </trkpt>
      <trkpt lat="43.30142" lon="3.50646">
        <ele>81</ele>
        <time>2010-07-21T12:57:56Z</time>
      </trkpt>
      <trkpt lat="43.30097" lon="3.50681">
        <ele>83</ele>
        <time>2010-07-21T12:58:15Z</time>
      </trkpt>
      <trkpt lat="43.30065" lon="3.50704">
        <ele>83</ele>
        <time>2010-07-21T12:58:22Z</time>
      </trkpt>
      <trkpt lat="43.30022" lon="3.50734">
        <ele>81</ele>
        <time>2010-07-21T12:58:35Z</time>
      </trkpt>
      <trkpt lat="43.30004" lon="3.5073">
        <ele>81</ele>
        <time>2010-07-21T12:58:41Z</time>
      </trkpt>
      <trkpt lat="43.30005" lon="3.50713">
        <ele>80</ele>
        <time>2010-07-21T12:58:46Z</time>
      </trkpt>
      <trkpt lat="43.30014" lon="3.50651">
        <ele>80</ele>
        <time>2010-07-21T12:59:06Z</time>
      </trkpt>
      <trkpt lat="43.3001" lon="3.50588">
        <ele>82</ele>
        <time>2010-07-21T12:59:42Z</time>
      </trkpt>
      <trkpt lat="43.30017" lon="3.50524">
        <ele>84</ele>
        <time>2010-07-21T13:00:11Z</time>
      </trkpt>
      <trkpt lat="43.30008" lon="3.50498">
        <ele>84</ele>
        <time>2010-07-21T13:00:27Z</time>
      </trkpt>
      <trkpt lat="43.29964" lon="3.50515">
        <ele>86</ele>
        <time>2010-07-21T13:01:07Z</time>
      </trkpt>
      <trkpt lat="43.2993" lon="3.50556">
        <ele>87</ele>
        <time>2010-07-21T13:01:24Z</time>
      </trkpt>
      <trkpt lat="43.29891" lon="3.5059">
        <ele>87</ele>
        <time>2010-07-21T13:01:38Z</time>
      </trkpt>
      <trkpt lat="43.29865" lon="3.50584">
        <ele>88</ele>
        <time>2010-07-21T13:01:55Z</time>
      </trkpt>
      <trkpt lat="43.29881" lon="3.50565">
        <ele>89</ele>
        <time>2010-07-21T13:02:05Z</time>
      </trkpt>
      <trkpt lat="43.29902" lon="3.50509">
        <ele>88</ele>
        <time>2010-07-21T13:02:34Z</time>
      </trkpt>
      <trkpt lat="43.29955" lon="3.50404">
        <ele>88</ele>
        <time>2010-07-21T13:03:11Z</time>
      </trkpt>
      <trkpt lat="43.29931" lon="3.50408">
        <ele>88</ele>
        <time>2010-07-21T13:03:31Z</time>
      </trkpt>
      <trkpt lat="43.29917" lon="3.50419">
        <ele>89</ele>
        <time>2010-07-21T13:03:39Z</time>
      </trkpt>
      <trkpt lat="43.29874" lon="3.50451">
        <ele>90</ele>
        <time>2010-07-21T13:04:02Z</time>
      </trkpt>
      <trkpt lat="43.2985" lon="3.50464">
        <ele>91</ele>
        <time>2010-07-21T13:04:16Z</time>
      </trkpt>
      <trkpt lat="43.29845" lon="3.50462">
        <ele>91</ele>
        <time>2010-07-21T13:04:19Z</time>
      </trkpt>
      <trkpt lat="43.29839" lon="3.50453">
        <ele>91</ele>
        <time>2010-07-21T13:04:24Z</time>
      </trkpt>
      <trkpt lat="43.29823" lon="3.50421">
        <ele>92</ele>
        <time>2010-07-21T13:04:36Z</time>
      </trkpt>
      <trkpt lat="43.29805" lon="3.5041">
        <ele>94</ele>
        <time>2010-07-21T13:05:37Z</time>
      </trkpt>
      <trkpt lat="43.29798" lon="3.50404">
        <ele>111</ele>
        <time>2010-07-21T13:06:38Z</time>
      </trkpt>
      <trkpt lat="43.29795" lon="3.5041">
        <ele>112</ele>
        <time>2010-07-21T13:07:39Z</time>
      </trkpt>
      <trkpt lat="43.29802" lon="3.50408">
        <ele>112</ele>
        <time>2010-07-21T13:08:40Z</time>
      </trkpt>
      <trkpt lat="43.29806" lon="3.50412">
        <ele>114</ele>
        <time>2010-07-21T13:09:41Z</time>
      </trkpt>
      <trkpt lat="43.29805" lon="3.50419">
        <ele>112</ele>
        <time>2010-07-21T13:10:42Z</time>
      </trkpt>
      <trkpt lat="43.2979" lon="3.50402">
        <ele>112</ele>
        <time>2010-07-21T13:11:43Z</time>
      </trkpt>
      <trkpt lat="43.29769" lon="3.50384">
        <ele>111</ele>
        <time>2010-07-21T13:12:09Z</time>
      </trkpt>
      <trkpt lat="43.29788" lon="3.50391">
        <ele>111</ele>
        <time>2010-07-21T13:13:10Z</time>
      </trkpt>
      <trkpt lat="43.29798" lon="3.50406">
        <ele>117</ele>
        <time>2010-07-21T13:14:11Z</time>
      </trkpt>
      <trkpt lat="43.29793" lon="3.50399">
        <ele>117</ele>
        <time>2010-07-21T13:14:14Z</time>
      </trkpt>
      <trkpt lat="43.29772" lon="3.50363">
        <ele>119</ele>
        <time>2010-07-21T13:14:30Z</time>
      </trkpt>
      <trkpt lat="43.29737" lon="3.50312">
        <ele>122</ele>
        <time>2010-07-21T13:14:40Z</time>
      </trkpt>
      <trkpt lat="43.29734" lon="3.50301">
        <ele>122</ele>
        <time>2010-07-21T13:14:42Z</time>
      </trkpt>
      <trkpt lat="43.29734" lon="3.50273">
        <ele>122</ele>
        <time>2010-07-21T13:14:49Z</time>
      </trkpt>
      <trkpt lat="43.29751" lon="3.50224">
        <ele>125</ele>
        <time>2010-07-21T13:15:01Z</time>
      </trkpt>
      <trkpt lat="43.29767" lon="3.50189">
        <ele>127</ele>
        <time>2010-07-21T13:15:10Z</time>
      </trkpt>
      <trkpt lat="43.29792" lon="3.5011">
        <ele>128</ele>
        <time>2010-07-21T13:15:26Z</time>
      </trkpt>
      <trkpt lat="43.29782" lon="3.49962">
        <ele>133</ele>
        <time>2010-07-21T13:15:58Z</time>
      </trkpt>
      <trkpt lat="43.29748" lon="3.50196">
        <ele>134</ele>
        <time>2010-07-21T13:18:21Z</time>
      </trkpt>
      <trkpt lat="43.29751" lon="3.502">
        <ele>134</ele>
        <time>2010-07-21T13:18:22Z</time>
      </trkpt>
      <trkpt lat="43.29731" lon="3.50245">
        <ele>134</ele>
        <time>2010-07-21T13:18:30Z</time>
      </trkpt>
      <trkpt lat="43.29727" lon="3.5026">
        <ele>133</ele>
        <time>2010-07-21T13:18:33Z</time>
      </trkpt>
      <trkpt lat="43.29716" lon="3.50301">
        <ele>132</ele>
        <time>2010-07-21T13:18:41Z</time>
      </trkpt>
      <trkpt lat="43.29714" lon="3.50318">
        <ele>133</ele>
        <time>2010-07-21T13:18:44Z</time>
      </trkpt>
      <trkpt lat="43.29718" lon="3.50361">
        <ele>133</ele>
        <time>2010-07-21T13:18:52Z</time>
      </trkpt>
      <trkpt lat="43.29749" lon="3.50406">
        <ele>134</ele>
        <time>2010-07-21T13:19:14Z</time>
      </trkpt>
      <trkpt lat="43.29771" lon="3.50425">
        <ele>134</ele>
        <time>2010-07-21T13:19:20Z</time>
      </trkpt>
      <trkpt lat="43.29806" lon="3.50447">
        <ele>135</ele>
        <time>2010-07-21T13:19:30Z</time>
      </trkpt>
      <trkpt lat="43.29819" lon="3.50447">
        <ele>136</ele>
        <time>2010-07-21T13:19:34Z</time>
      </trkpt>
      <trkpt lat="43.29856" lon="3.50427">
        <ele>130</ele>
        <time>2010-07-21T13:20:35Z</time>
      </trkpt>
      <trkpt lat="43.29864" lon="3.50427">
        <ele>127</ele>
        <time>2010-07-21T13:21:36Z</time>
      </trkpt>
      <trkpt lat="43.29872" lon="3.50417">
        <ele>123</ele>
        <time>2010-07-21T13:22:37Z</time>
      </trkpt>
      <trkpt lat="43.2986" lon="3.50427">
        <ele>121</ele>
        <time>2010-07-21T13:23:38Z</time>
      </trkpt>
      <trkpt lat="43.29861" lon="3.50415">
        <ele>119</ele>
        <time>2010-07-21T13:24:39Z</time>
      </trkpt>
      <trkpt lat="43.29866" lon="3.50404">
        <ele>122</ele>
        <time>2010-07-21T13:25:34Z</time>
      </trkpt>
      <trkpt lat="43.29896" lon="3.50374">
        <ele>121</ele>
        <time>2010-07-21T13:25:46Z</time>
      </trkpt>
      <trkpt lat="43.29903" lon="3.50367">
        <ele>120</ele>
        <time>2010-07-21T13:25:48Z</time>
      </trkpt>
      <trkpt lat="43.29924" lon="3.50337">
        <ele>119</ele>
        <time>2010-07-21T13:25:55Z</time>
      </trkpt>
      <trkpt lat="43.29975" lon="3.50232">
        <ele>118</ele>
        <time>2010-07-21T13:26:21Z</time>
      </trkpt>
      <trkpt lat="43.2999" lon="3.50181">
        <ele>119</ele>
        <time>2010-07-21T13:26:31Z</time>
      </trkpt>
      <trkpt lat="43.29996" lon="3.50178">
        <ele>119</ele>
        <time>2010-07-21T13:26:32Z</time>
      </trkpt>
      <trkpt lat="43.30014" lon="3.50157">
        <ele>117</ele>
        <time>2010-07-21T13:26:36Z</time>
      </trkpt>
      <trkpt lat="43.30062" lon="3.50054">
        <ele>116</ele>
        <time>2010-07-21T13:26:57Z</time>
      </trkpt>
      <trkpt lat="43.30056" lon="3.50037">
        <ele>117</ele>
        <time>2010-07-21T13:27:00Z</time>
      </trkpt>
      <trkpt lat="43.30042" lon="3.50009">
        <ele>117</ele>
        <time>2010-07-21T13:27:05Z</time>
      </trkpt>
      <trkpt lat="43.30014" lon="3.49949">
        <ele>118</ele>
        <time>2010-07-21T13:27:17Z</time>
      </trkpt>
      <trkpt lat="43.29998" lon="3.49891">
        <ele>117</ele>
        <time>2010-07-21T13:27:28Z</time>
      </trkpt>
      <trkpt lat="43.2998" lon="3.49923">
        <ele>117</ele>
        <time>2010-07-21T13:28:07Z</time>
      </trkpt>
      <trkpt lat="43.29992" lon="3.49985">
        <ele>121</ele>
        <time>2010-07-21T13:28:27Z</time>
      </trkpt>
      <trkpt lat="43.30006" lon="3.50045">
        <ele>120</ele>
        <time>2010-07-21T13:28:45Z</time>
      </trkpt>
      <trkpt lat="43.3002" lon="3.5011">
        <ele>119</ele>
        <time>2010-07-21T13:29:04Z</time>
      </trkpt>
      <trkpt lat="43.30005" lon="3.50166">
        <ele>120</ele>
        <time>2010-07-21T13:29:23Z</time>
      </trkpt>
      <trkpt lat="43.29973" lon="3.50226">
        <ele>120</ele>
        <time>2010-07-21T13:29:40Z</time>
      </trkpt>
      <trkpt lat="43.29966" lon="3.50247">
        <ele>120</ele>
        <time>2010-07-21T13:29:46Z</time>
      </trkpt>
      <trkpt lat="43.29962" lon="3.50273">
        <ele>120</ele>
        <time>2010-07-21T13:29:54Z</time>
      </trkpt>
      <trkpt lat="43.29968" lon="3.50288">
        <ele>120</ele>
        <time>2010-07-21T13:29:58Z</time>
      </trkpt>
      <trkpt lat="43.29964" lon="3.50288">
        <ele>121</ele>
        <time>2010-07-21T13:30:59Z</time>
      </trkpt>
      <trkpt lat="43.29953" lon="3.50331">
        <ele>123</ele>
        <time>2010-07-21T13:31:19Z</time>
      </trkpt>
      <trkpt lat="43.2995" lon="3.50335">
        <ele>124</ele>
        <time>2010-07-21T13:31:20Z</time>
      </trkpt>
      <trkpt lat="43.29949" lon="3.50344">
        <ele>124</ele>
        <time>2010-07-21T13:31:21Z</time>
      </trkpt>
      <trkpt lat="43.29945" lon="3.50352">
        <ele>123</ele>
        <time>2010-07-21T13:31:23Z</time>
      </trkpt>
      <trkpt lat="43.29918" lon="3.50361">
        <ele>119</ele>
        <time>2010-07-21T13:32:22Z</time>
      </trkpt>
      <trkpt lat="43.29906" lon="3.50374">
        <ele>118</ele>
        <time>2010-07-21T13:32:25Z</time>
      </trkpt>
      <trkpt lat="43.29847" lon="3.50442">
        <ele>118</ele>
        <time>2010-07-21T13:32:46Z</time>
      </trkpt>
      <trkpt lat="43.29801" lon="3.50445">
        <ele>117</ele>
        <time>2010-07-21T13:32:56Z</time>
      </trkpt>
      <trkpt lat="43.29799" lon="3.5044">
        <ele>117</ele>
        <time>2010-07-21T13:32:57Z</time>
      </trkpt>
      <trkpt lat="43.29801" lon="3.50412">
        <ele>115</ele>
        <time>2010-07-21T13:33:49Z</time>
      </trkpt>
      <trkpt lat="43.29787" lon="3.50352">
        <ele>121</ele>
        <time>2010-07-21T13:34:47Z</time>
      </trkpt>
      <trkpt lat="43.29786" lon="3.50346">
        <ele>125</ele>
        <time>2010-07-21T13:35:48Z</time>
      </trkpt>
      <trkpt lat="43.298" lon="3.50322">
        <ele>143</ele>
        <time>2010-07-21T13:36:49Z</time>
      </trkpt>
      <trkpt lat="43.29806" lon="3.50307">
        <ele>149</ele>
        <time>2010-07-21T13:37:50Z</time>
      </trkpt>
      <trkpt lat="43.29804" lon="3.50284">
        <ele>162</ele>
        <time>2010-07-21T13:38:51Z</time>
      </trkpt>
      <trkpt lat="43.29808" lon="3.50279">
        <ele>169</ele>
        <time>2010-07-21T13:39:52Z</time>
      </trkpt>
      <trkpt lat="43.29796" lon="3.50314">
        <ele>162</ele>
        <time>2010-07-21T13:40:53Z</time>
      </trkpt>
      <trkpt lat="43.29781" lon="3.50322">
        <ele>160</ele>
        <time>2010-07-21T13:42:02Z</time>
      </trkpt>
      <trkpt lat="43.29797" lon="3.50357">
        <ele>160</ele>
        <time>2010-07-21T13:45:20Z</time>
      </trkpt>
      <trkpt lat="43.29851" lon="3.50395">
        <ele>160</ele>
        <time>2010-07-21T13:45:23Z</time>
      </trkpt>
      <trkpt lat="43.29915" lon="3.5044">
        <ele>160</ele>
        <time>2010-07-21T13:45:26Z</time>
      </trkpt>
      <trkpt lat="43.2987" lon="3.50434">
        <ele>146</ele>
        <time>2010-07-21T13:45:52Z</time>
      </trkpt>
      <trkpt lat="43.29915" lon="3.50445">
        <ele>137</ele>
        <time>2010-07-21T13:46:44Z</time>
      </trkpt>
      <trkpt lat="43.2993" lon="3.50438">
        <ele>133</ele>
        <time>2010-07-21T13:46:57Z</time>
      </trkpt>
      <trkpt lat="43.29983" lon="3.50399">
        <ele>131</ele>
        <time>2010-07-21T13:47:11Z</time>
      </trkpt>
      <trkpt lat="43.29977" lon="3.50402">
        <ele>129</ele>
        <time>2010-07-21T13:47:19Z</time>
      </trkpt>
      <trkpt lat="43.29962" lon="3.50415">
        <ele>122</ele>
        <time>2010-07-21T13:48:20Z</time>
      </trkpt>
      <trkpt lat="43.2997" lon="3.5041">
        <ele>116</ele>
        <time>2010-07-21T13:49:21Z</time>
      </trkpt>
      <trkpt lat="43.29968" lon="3.50419">
        <ele>122</ele>
        <time>2010-07-21T13:50:22Z</time>
      </trkpt>
      <trkpt lat="43.29932" lon="3.50436">
        <ele>126</ele>
        <time>2010-07-21T13:51:04Z</time>
      </trkpt>
      <trkpt lat="43.29903" lon="3.50455">
        <ele>127</ele>
        <time>2010-07-21T13:51:11Z</time>
      </trkpt>
      <trkpt lat="43.29869" lon="3.50522">
        <ele>127</ele>
        <time>2010-07-21T13:51:21Z</time>
      </trkpt>
      <trkpt lat="43.29856" lon="3.50543">
        <ele>126</ele>
        <time>2010-07-21T13:51:24Z</time>
      </trkpt>
      <trkpt lat="43.29834" lon="3.50573">
        <ele>125</ele>
        <time>2010-07-21T13:51:31Z</time>
      </trkpt>
      <trkpt lat="43.29879" lon="3.50575">
        <ele>123</ele>
        <time>2010-07-21T13:51:57Z</time>
      </trkpt>
      <trkpt lat="43.29898" lon="3.50565">
        <ele>123</ele>
        <time>2010-07-21T13:51:59Z</time>
      </trkpt>
      <trkpt lat="43.29984" lon="3.50492">
        <ele>123</ele>
        <time>2010-07-21T13:52:14Z</time>
      </trkpt>
      <trkpt lat="43.3001" lon="3.5049">
        <ele>123</ele>
        <time>2010-07-21T13:52:22Z</time>
      </trkpt>
      <trkpt lat="43.30028" lon="3.50498">
        <ele>121</ele>
        <time>2010-07-21T13:52:29Z</time>
      </trkpt>
      <trkpt lat="43.30027" lon="3.50496">
        <ele>121</ele>
        <time>2010-07-21T13:52:31Z</time>
      </trkpt>
      <trkpt lat="43.30028" lon="3.50498">
        <ele>120</ele>
        <time>2010-07-21T13:52:32Z</time>
      </trkpt>
      <trkpt lat="43.30022" lon="3.50511">
        <ele>119</ele>
        <time>2010-07-21T13:52:35Z</time>
      </trkpt>
      <trkpt lat="43.30005" lon="3.50548">
        <ele>114</ele>
        <time>2010-07-21T13:52:56Z</time>
      </trkpt>
      <trkpt lat="43.29998" lon="3.50565">
        <ele>115</ele>
        <time>2010-07-21T13:53:00Z</time>
      </trkpt>
      <trkpt lat="43.29998" lon="3.50597">
        <ele>114</ele>
        <time>2010-07-21T13:53:04Z</time>
      </trkpt>
      <trkpt lat="43.29998" lon="3.50629">
        <ele>115</ele>
        <time>2010-07-21T13:53:12Z</time>
      </trkpt>
      <trkpt lat="43.29987" lon="3.50706">
        <ele>115</ele>
        <time>2010-07-21T13:53:26Z</time>
      </trkpt>
      <trkpt lat="43.29985" lon="3.50715">
        <ele>115</ele>
        <time>2010-07-21T13:53:28Z</time>
      </trkpt>
      <trkpt lat="43.29992" lon="3.50721">
        <ele>117</ele>
        <time>2010-07-21T13:53:31Z</time>
      </trkpt>
      <trkpt lat="43.30005" lon="3.50728">
        <ele>119</ele>
        <time>2010-07-21T13:53:34Z</time>
      </trkpt>
      <trkpt lat="43.30019" lon="3.50728">
        <ele>119</ele>
        <time>2010-07-21T13:53:37Z</time>
      </trkpt>
      <trkpt lat="43.30023" lon="3.50726">
        <ele>118</ele>
        <time>2010-07-21T13:53:38Z</time>
      </trkpt>
      <trkpt lat="43.3009" lon="3.50659">
        <ele>116</ele>
        <time>2010-07-21T13:53:56Z</time>
      </trkpt>
      <trkpt lat="43.30242" lon="3.5056">
        <ele>113</ele>
        <time>2010-07-21T13:54:29Z</time>
      </trkpt>
      <trkpt lat="43.30249" lon="3.50567">
        <ele>114</ele>
        <time>2010-07-21T13:54:31Z</time>
      </trkpt>
      <trkpt lat="43.30297" lon="3.50623">
        <ele>112</ele>
        <time>2010-07-21T13:54:46Z</time>
      </trkpt>
      <trkpt lat="43.30319" lon="3.50636">
        <ele>111</ele>
        <time>2010-07-21T13:54:51Z</time>
      </trkpt>
      <trkpt lat="43.3037" lon="3.50672">
        <ele>110</ele>
        <time>2010-07-21T13:54:59Z</time>
      </trkpt>
      <trkpt lat="43.30389" lon="3.50693">
        <ele>109</ele>
        <time>2010-07-21T13:55:03Z</time>
      </trkpt>
      <trkpt lat="43.30434" lon="3.50711">
        <ele>106</ele>
        <time>2010-07-21T13:55:11Z</time>
      </trkpt>
      <trkpt lat="43.30466" lon="3.50734">
        <ele>101</ele>
        <time>2010-07-21T13:55:22Z</time>
      </trkpt>
      <trkpt lat="43.30466" lon="3.50741">
        <ele>100</ele>
        <time>2010-07-21T13:55:23Z</time>
      </trkpt>
      <trkpt lat="43.30466" lon="3.50749">
        <ele>100</ele>
        <time>2010-07-21T13:55:26Z</time>
      </trkpt>
      <trkpt lat="43.30456" lon="3.50807">
        <ele>99</ele>
        <time>2010-07-21T13:55:38Z</time>
      </trkpt>
      <trkpt lat="43.30454" lon="3.50811">
        <ele>100</ele>
        <time>2010-07-21T13:55:39Z</time>
      </trkpt>
      <trkpt lat="43.30448" lon="3.50816">
        <ele>100</ele>
        <time>2010-07-21T13:55:41Z</time>
      </trkpt>
      <trkpt lat="43.30429" lon="3.50822">
        <ele>99</ele>
        <time>2010-07-21T13:55:46Z</time>
      </trkpt>
      <trkpt lat="43.30374" lon="3.50811">
        <ele>88</ele>
        <time>2010-07-21T13:56:03Z</time>
      </trkpt>
      <trkpt lat="43.30297" lon="3.50796">
        <ele>80</ele>
        <time>2010-07-21T13:56:35Z</time>
      </trkpt>
      <trkpt lat="43.30092" lon="3.5079">
        <ele>79</ele>
        <time>2010-07-21T13:57:36Z</time>
      </trkpt>
      <trkpt lat="43.29961" lon="3.50794">
        <ele>80</ele>
        <time>2010-07-21T13:58:17Z</time>
      </trkpt>
      <trkpt lat="43.29946" lon="3.50809">
        <ele>81</ele>
        <time>2010-07-21T13:58:23Z</time>
      </trkpt>
      <trkpt lat="43.29876" lon="3.50925">
        <ele>86</ele>
        <time>2010-07-21T13:58:55Z</time>
      </trkpt>
      <trkpt lat="43.29877" lon="3.50932">
        <ele>85</ele>
        <time>2010-07-21T13:58:56Z</time>
      </trkpt>
      <trkpt lat="43.29909" lon="3.50951">
        <ele>83</ele>
        <time>2010-07-21T13:59:57Z</time>
      </trkpt>
      <trkpt lat="43.29925" lon="3.50966">
        <ele>86</ele>
        <time>2010-07-21T14:00:36Z</time>
      </trkpt>
      <trkpt lat="43.2993" lon="3.5096">
        <ele>86</ele>
        <time>2010-07-21T14:00:38Z</time>
      </trkpt>
      <trkpt lat="43.29968" lon="3.5094">
        <ele>84</ele>
        <time>2010-07-21T14:00:54Z</time>
      </trkpt>
      <trkpt lat="43.29988" lon="3.50996">
        <ele>84</ele>
        <time>2010-07-21T14:01:23Z</time>
      </trkpt>
      <trkpt lat="43.30006" lon="3.51054">
        <ele>88</ele>
        <time>2010-07-21T14:01:45Z</time>
      </trkpt>
      <trkpt lat="43.30028" lon="3.5109">
        <ele>93</ele>
        <time>2010-07-21T14:02:46Z</time>
      </trkpt>
      <trkpt lat="43.30034" lon="3.51065">
        <ele>87</ele>
        <time>2010-07-21T14:03:31Z</time>
      </trkpt>
      <trkpt lat="43.30036" lon="3.51063">
        <ele>87</ele>
        <time>2010-07-21T14:03:33Z</time>
      </trkpt>
      <trkpt lat="43.30036" lon="3.51054">
        <ele>86</ele>
        <time>2010-07-21T14:03:36Z</time>
      </trkpt>
      <trkpt lat="43.30034" lon="3.5105">
        <ele>83</ele>
        <time>2010-07-21T14:03:41Z</time>
      </trkpt>
      <trkpt lat="43.30014" lon="3.51013">
        <ele>82</ele>
        <time>2010-07-21T14:04:42Z</time>
      </trkpt>
      <trkpt lat="43.29995" lon="3.5099">
        <ele>55</ele>
        <time>2010-07-21T14:05:43Z</time>
      </trkpt>
      <trkpt lat="43.29999" lon="3.50985">
        <ele>51</ele>
        <time>2010-07-21T14:06:44Z</time>
      </trkpt>
      <trkpt lat="43.2999" lon="3.50923">
        <ele>56</ele>
        <time>2010-07-21T14:07:34Z</time>
      </trkpt>
      <trkpt lat="43.29976" lon="3.50897">
        <ele>57</ele>
        <time>2010-07-21T14:07:42Z</time>
      </trkpt>
      <trkpt lat="43.29968" lon="3.50897">
        <ele>58</ele>
        <time>2010-07-21T14:07:46Z</time>
      </trkpt>
      <trkpt lat="43.29982" lon="3.50927">
        <ele>61</ele>
        <time>2010-07-21T14:08:47Z</time>
      </trkpt>
      <trkpt lat="43.29983" lon="3.5094">
        <ele>62</ele>
        <time>2010-07-21T14:09:48Z</time>
      </trkpt>
      <trkpt lat="43.29965" lon="3.50942">
        <ele>61</ele>
        <time>2010-07-21T14:10:45Z</time>
      </trkpt>
      <trkpt lat="43.29935" lon="3.50951">
        <ele>60</ele>
        <time>2010-07-21T14:10:55Z</time>
      </trkpt>
      <trkpt lat="43.29866" lon="3.50985">
        <ele>60</ele>
        <time>2010-07-21T14:11:18Z</time>
      </trkpt>
      <trkpt lat="43.29848" lon="3.50983">
        <ele>61</ele>
        <time>2010-07-21T14:11:26Z</time>
      </trkpt>
      <trkpt lat="43.29806" lon="3.50975">
        <ele>63</ele>
        <time>2010-07-21T14:11:39Z</time>
      </trkpt>
      <trkpt lat="43.2978" lon="3.50927">
        <ele>67</ele>
        <time>2010-07-21T14:11:51Z</time>
      </trkpt>
      <trkpt lat="43.29773" lon="3.50925">
        <ele>68</ele>
        <time>2010-07-21T14:11:54Z</time>
      </trkpt>
      <trkpt lat="43.29728" lon="3.50925">
        <ele>72</ele>
        <time>2010-07-21T14:12:10Z</time>
      </trkpt>
      <trkpt lat="43.29709" lon="3.50945">
        <ele>72</ele>
        <time>2010-07-21T14:12:16Z</time>
      </trkpt>
      <trkpt lat="43.29708" lon="3.50955">
        <ele>73</ele>
        <time>2010-07-21T14:12:17Z</time>
      </trkpt>
      <trkpt lat="43.29709" lon="3.50964">
        <ele>73</ele>
        <time>2010-07-21T14:12:18Z</time>
      </trkpt>
      <trkpt lat="43.2972" lon="3.51093">
        <ele>79</ele>
        <time>2010-07-21T14:12:36Z</time>
      </trkpt>
      <trkpt lat="43.29696" lon="3.51361">
        <ele>69</ele>
        <time>2010-07-21T14:13:12Z</time>
      </trkpt>
      <trkpt lat="43.29696" lon="3.51387">
        <ele>69</ele>
        <time>2010-07-21T14:13:15Z</time>
      </trkpt>
      <trkpt lat="43.2968" lon="3.51421">
        <ele>68</ele>
        <time>2010-07-21T14:13:22Z</time>
      </trkpt>
      <trkpt lat="43.29663" lon="3.51429">
        <ele>66</ele>
        <time>2010-07-21T14:13:29Z</time>
      </trkpt>
      <trkpt lat="43.29648" lon="3.51425">
        <ele>67</ele>
        <time>2010-07-21T14:13:32Z</time>
      </trkpt>
      <trkpt lat="43.29628" lon="3.51414">
        <ele>68</ele>
        <time>2010-07-21T14:13:37Z</time>
      </trkpt>
      <trkpt lat="43.2958" lon="3.51406">
        <ele>69</ele>
        <time>2010-07-21T14:13:45Z</time>
      </trkpt>
      <trkpt lat="43.29531" lon="3.51397">
        <ele>69</ele>
        <time>2010-07-21T14:13:54Z</time>
      </trkpt>
      <trkpt lat="43.29413" lon="3.51419">
        <ele>71</ele>
        <time>2010-07-21T14:14:13Z</time>
      </trkpt>
      <trkpt lat="43.29387" lon="3.5144">
        <ele>68</ele>
        <time>2010-07-21T14:14:21Z</time>
      </trkpt>
      <trkpt lat="43.29344" lon="3.51414">
        <ele>67</ele>
        <time>2010-07-21T14:14:33Z</time>
      </trkpt>
      <trkpt lat="43.29326" lon="3.51391">
        <ele>68</ele>
        <time>2010-07-21T14:14:38Z</time>
      </trkpt>
      <trkpt lat="43.29325" lon="3.51389">
        <ele>68</ele>
        <time>2010-07-21T14:14:39Z</time>
      </trkpt>
      <trkpt lat="43.29316" lon="3.51376">
        <ele>68</ele>
        <time>2010-07-21T14:14:41Z</time>
      </trkpt>
      <trkpt lat="43.29303" lon="3.51369">
        <ele>67</ele>
        <time>2010-07-21T14:14:45Z</time>
      </trkpt>
      <trkpt lat="43.29257" lon="3.51361">
        <ele>68</ele>
        <time>2010-07-21T14:15:02Z</time>
      </trkpt>
      <trkpt lat="43.29251" lon="3.51363">
        <ele>65</ele>
        <time>2010-07-21T14:16:03Z</time>
      </trkpt>
    </trkseg>
  </trk>
</gpx>